createdAt,value
2017-12-17T00:01:06.946Z,4.20
2017-12-17T00:03:34.777Z,5.07
2017-12-17T00:06:02.509Z,4.70
2017-12-17T00:08:30.290Z,4.90
2017-12-17T00:10:58.077Z,4.47
2017-12-17T00:13:25.873Z,5.27
2017-12-17T00:15:53.699Z,3.70
2017-12-17T00:18:22.244Z,8.30
2017-12-17T00:20:50.086Z,4.10
2017-12-17T00:23:17.797Z,5.57
2017-12-17T00:25:45.548Z,5.00
2017-12-17T00:28:13.315Z,4.93
2017-12-17T00:30:41.012Z,5.23
2017-12-17T00:33:08.810Z,5.90
2017-12-17T00:35:36.640Z,5.10
2017-12-17T00:38:04.814Z,2.67
2017-12-17T00:40:32.508Z,5.73
2017-12-17T00:43:00.271Z,5.70
2017-12-17T00:45:27.947Z,4.00
2017-12-17T00:47:55.664Z,7.40
2017-12-17T00:50:23.475Z,5.30
2017-12-17T00:52:51.163Z,6.90
2017-12-17T00:55:18.951Z,6.30
2017-12-17T00:57:46.659Z,5.43
2017-12-17T01:00:14.343Z,5.03
2017-12-17T01:02:42.135Z,4.10
2017-12-17T01:05:09.828Z,7.77
2017-12-17T01:07:37.561Z,5.37
2017-12-17T01:10:05.475Z,7.13
2017-12-17T01:12:33.504Z,5.97
2017-12-17T01:15:01.183Z,5.07
2017-12-17T01:17:28.962Z,5.13
2017-12-17T01:19:56.699Z,4.80
2017-12-17T01:22:24.453Z,5.97
2017-12-17T01:24:52.548Z,4.70
2017-12-17T01:27:20.256Z,5.20
2017-12-17T01:29:47.971Z,4.17
2017-12-17T01:32:15.688Z,6.43
2017-12-17T01:34:44.181Z,5.40
2017-12-17T01:37:11.932Z,7.70
2017-12-17T01:39:39.600Z,8.17
2017-12-17T01:42:07.399Z,8.53
2017-12-17T01:44:35.927Z,4.17
2017-12-17T01:47:03.784Z,5.93
2017-12-17T01:49:31.541Z,5.03
2017-12-17T01:51:59.368Z,6.20
2017-12-17T01:54:27.156Z,7.57
2017-12-17T01:56:54.900Z,6.20
2017-12-17T01:59:22.693Z,9.40
2017-12-17T02:01:50.399Z,13.80
2017-12-17T02:04:18.146Z,9.70
2017-12-17T02:06:45.935Z,6.23
2017-12-17T02:09:13.658Z,5.63
2017-12-17T02:11:41.428Z,5.53
2017-12-17T02:14:09.202Z,5.57
2017-12-17T02:16:37.008Z,5.53
2017-12-17T02:19:04.803Z,6.47
2017-12-17T02:21:33.019Z,7.70
2017-12-17T02:24:00.879Z,6.50
2017-12-17T02:26:28.723Z,6.37
2017-12-17T02:28:56.493Z,6.33
2017-12-17T02:31:24.279Z,5.20
2017-12-17T02:33:52.069Z,5.60
2017-12-17T02:36:19.878Z,5.43
2017-12-17T02:38:47.656Z,5.23
2017-12-17T02:41:15.435Z,3.13
2017-12-17T02:43:43.227Z,5.60
2017-12-17T02:46:10.989Z,5.67
2017-12-17T02:48:38.905Z,4.30
2017-12-17T02:51:06.681Z,4.43
2017-12-17T02:53:34.438Z,5.23
2017-12-17T02:56:02.247Z,5.50
2017-12-17T02:58:30.022Z,1.60
2017-12-17T03:00:58.072Z,5.40
2017-12-17T03:03:25.913Z,4.83
2017-12-17T03:05:53.669Z,4.00
2017-12-17T03:08:21.473Z,5.93
2017-12-17T03:10:49.310Z,11.10
2017-12-17T03:13:17.149Z,9.60
2017-12-17T03:15:44.885Z,3.77
2017-12-17T03:18:12.680Z,7.90
2017-12-17T03:20:40.514Z,7.67
2017-12-17T03:23:08.338Z,7.90
2017-12-17T03:25:36.143Z,9.13
2017-12-17T03:28:03.958Z,13.77
2017-12-17T03:30:31.769Z,9.87
2017-12-17T03:32:59.555Z,7.90
2017-12-17T03:35:27.325Z,7.80
2017-12-17T03:37:55.080Z,8.47
2017-12-17T03:40:22.954Z,10.47
2017-12-17T03:42:50.693Z,9.90
2017-12-17T03:45:18.491Z,12.83
2017-12-17T03:47:46.318Z,11.20
2017-12-17T03:50:14.119Z,18.87
2017-12-17T03:52:41.924Z,17.90
2017-12-17T03:55:09.717Z,16.67
2017-12-17T03:57:37.511Z,13.53
2017-12-17T04:00:05.358Z,13.27
2017-12-17T04:02:33.208Z,15.50
2017-12-17T04:05:01.029Z,11.97
2017-12-17T04:07:28.916Z,21.40
2017-12-17T04:09:56.702Z,11.23
2017-12-17T04:12:24.524Z,11.53
2017-12-17T04:14:52.263Z,13.03
2017-12-17T04:17:20.064Z,10.70
2017-12-17T04:19:47.785Z,11.83
2017-12-17T04:22:15.634Z,11.53
2017-12-17T04:24:43.404Z,13.60
2017-12-17T04:27:11.115Z,10.60
2017-12-17T04:29:38.888Z,12.30
2017-12-17T04:32:06.683Z,11.10
2017-12-17T04:34:34.487Z,8.57
2017-12-17T04:37:02.527Z,10.33
2017-12-17T04:39:30.349Z,9.57
2017-12-17T04:41:58.075Z,8.73
2017-12-17T04:44:25.904Z,11.53
2017-12-17T04:46:53.668Z,9.83
2017-12-17T04:49:21.460Z,10.87
2017-12-17T04:51:49.235Z,11.23
2017-12-17T04:54:17.035Z,12.77
2017-12-17T04:56:44.799Z,9.53
2017-12-17T04:59:12.560Z,6.50
2017-12-17T05:01:40.283Z,12.77
2017-12-17T05:04:08.066Z,9.47
2017-12-17T05:06:35.798Z,10.50
2017-12-17T05:09:03.652Z,9.90
2017-12-17T05:11:31.375Z,12.20
2017-12-17T05:13:59.164Z,11.33
2017-12-17T05:16:26.947Z,10.33
2017-12-17T05:18:54.803Z,9.33
2017-12-17T05:21:22.613Z,10.10
2017-12-17T05:23:50.424Z,13.97
2017-12-17T05:26:18.231Z,7.10
2017-12-17T05:28:46.081Z,9.17
2017-12-17T05:31:13.837Z,8.87
2017-12-17T05:33:41.650Z,7.80
2017-12-17T05:36:09.447Z,7.73
2017-12-17T05:38:37.205Z,13.50
2017-12-17T05:41:05.025Z,10.80
2017-12-17T05:43:32.807Z,12.90
2017-12-17T05:46:00.564Z,14.70
2017-12-17T05:48:28.341Z,18.43
2017-12-17T05:50:56.094Z,20.60
2017-12-17T05:53:23.877Z,18.40
2017-12-17T05:55:51.646Z,13.13
2017-12-17T05:58:19.430Z,12.27
2017-12-17T06:00:47.156Z,7.20
2017-12-17T06:03:15.330Z,10.40
2017-12-17T06:05:43.124Z,10.30
2017-12-17T06:08:10.959Z,9.03
2017-12-17T06:10:38.786Z,9.53
2017-12-17T06:13:06.923Z,7.20
2017-12-17T06:15:34.731Z,7.90
2017-12-17T06:18:02.529Z,9.07
2017-12-17T06:20:30.326Z,9.37
2017-12-17T06:22:58.044Z,8.93
2017-12-17T06:25:26.384Z,9.07
2017-12-17T06:27:54.210Z,11.03
2017-12-17T06:30:22.619Z,14.60
2017-12-17T06:32:50.456Z,11.63
2017-12-17T06:35:18.207Z,11.30
2017-12-17T06:37:45.984Z,9.37
2017-12-17T06:40:13.798Z,10.83
2017-12-17T06:42:41.636Z,13.90
2017-12-17T06:45:09.373Z,12.23
2017-12-17T06:47:37.127Z,8.10
2017-12-17T06:50:04.892Z,11.93
2017-12-17T06:52:32.675Z,10.77
2017-12-17T06:55:00.548Z,10.40
2017-12-17T06:57:28.324Z,13.13
2017-12-17T06:59:56.295Z,15.93
2017-12-17T07:02:24.217Z,14.37
2017-12-17T07:04:52.091Z,12.80
2017-12-17T07:07:19.900Z,17.40
2017-12-17T07:09:47.676Z,14.90
2017-12-17T07:12:15.424Z,16.90
2017-12-17T07:14:43.210Z,18.63
2017-12-17T07:17:11.021Z,23.53
2017-12-17T07:19:38.731Z,21.80
2017-12-17T07:22:06.558Z,25.93
2017-12-17T07:24:34.362Z,21.23
2017-12-17T07:27:02.102Z,21.40
2017-12-17T07:29:29.896Z,25.40
2017-12-17T07:31:57.645Z,28.40
2017-12-17T07:34:26.355Z,32.60
2017-12-17T07:36:54.131Z,29.87
2017-12-17T07:39:21.952Z,20.67
2017-12-17T07:41:49.805Z,22.67
2017-12-17T07:44:17.583Z,20.13
2017-12-17T07:46:45.368Z,28.80
2017-12-17T07:49:13.263Z,26.40
2017-12-17T07:51:41.093Z,21.73
2017-12-17T07:54:08.978Z,20.00
2017-12-17T07:56:36.843Z,17.80
2017-12-17T07:59:04.664Z,21.90
2017-12-17T08:01:32.689Z,16.70
2017-12-17T08:04:00.663Z,18.17
2017-12-17T08:06:28.489Z,21.20
2017-12-17T08:08:56.322Z,20.23
2017-12-17T08:11:24.115Z,14.17
2017-12-17T08:13:51.961Z,14.67
2017-12-17T08:16:19.777Z,13.90
2017-12-17T08:18:47.637Z,16.13
2017-12-17T08:21:15.494Z,11.73
2017-12-17T08:23:43.246Z,11.87
2017-12-17T08:26:11.052Z,18.27
2017-12-17T08:28:38.848Z,19.77
2017-12-17T08:31:06.670Z,26.37
2017-12-17T08:33:34.466Z,19.40
2017-12-17T08:36:03.280Z,18.70
2017-12-17T08:38:31.107Z,13.87
2017-12-17T08:40:58.898Z,18.80
2017-12-17T08:43:26.950Z,17.20
2017-12-17T08:45:54.787Z,18.90
2017-12-17T08:48:22.683Z,15.70
2017-12-17T08:50:50.922Z,24.43
2017-12-17T08:53:18.867Z,23.53
2017-12-17T08:55:46.636Z,22.93
2017-12-17T08:58:14.429Z,29.23
2017-12-17T09:00:42.241Z,23.43
2017-12-17T09:03:10.009Z,14.87
2017-12-17T09:05:37.919Z,20.03
2017-12-17T09:08:05.704Z,19.10
2017-12-17T09:10:33.460Z,21.00
2017-12-17T09:13:01.417Z,17.70
2017-12-17T09:15:29.282Z,16.00
2017-12-17T09:17:57.093Z,14.03
2017-12-17T09:20:24.932Z,20.10
2017-12-17T09:22:52.780Z,14.80
2017-12-17T09:25:20.518Z,17.90
2017-12-17T09:27:48.383Z,15.53
2017-12-17T09:30:16.293Z,16.27
2017-12-17T09:32:44.255Z,18.67
2017-12-17T09:35:12.396Z,19.77
2017-12-17T09:37:40.185Z,18.53
2017-12-17T09:40:08.415Z,8.23
2017-12-17T09:42:36.215Z,13.73
2017-12-17T09:45:03.999Z,20.50
2017-12-17T09:47:31.691Z,5.70
2017-12-17T09:49:59.631Z,6.77
2017-12-17T09:52:27.571Z,3.80
2017-12-17T09:54:55.379Z,5.03
2017-12-17T09:57:23.184Z,8.23
2017-12-17T09:59:50.957Z,4.53
2017-12-17T10:02:18.811Z,4.80
2017-12-17T10:04:46.861Z,7.63
2017-12-17T10:07:15.107Z,3.87
2017-12-17T10:09:42.874Z,4.80
2017-12-17T10:12:10.711Z,8.17
2017-12-17T10:14:38.662Z,7.87
2017-12-17T10:17:06.363Z,10.83
2017-12-17T10:19:34.196Z,12.83
2017-12-17T10:22:02.379Z,6.53
2017-12-17T10:24:30.159Z,7.73
2017-12-17T10:26:58.032Z,3.83
2017-12-17T10:29:25.776Z,8.50
2017-12-17T10:31:53.527Z,5.23
2017-12-17T10:34:21.412Z,12.63
2017-12-17T10:36:52.053Z,6.53
2017-12-17T10:39:19.921Z,10.10
2017-12-17T10:41:47.708Z,15.80
2017-12-17T10:44:15.576Z,17.07
2017-12-17T10:46:43.428Z,11.10
2017-12-17T10:49:11.389Z,9.87
2017-12-17T10:51:39.518Z,4.43
2017-12-17T10:54:07.349Z,8.20
2017-12-17T10:56:35.221Z,4.60
2017-12-17T10:59:03.077Z,8.20
2017-12-17T11:01:30.861Z,6.93
2017-12-17T11:03:58.661Z,6.70
2017-12-17T11:06:26.470Z,7.10
2017-12-17T11:08:54.440Z,5.57
2017-12-17T11:11:22.534Z,15.60
2017-12-17T11:13:50.313Z,13.07
2017-12-17T11:16:18.125Z,10.77
2017-12-17T11:18:45.879Z,17.20
2017-12-17T11:21:13.682Z,21.83
2017-12-17T11:23:41.455Z,8.50
2017-12-17T11:26:09.267Z,11.60
2017-12-17T11:28:37.061Z,8.93
2017-12-17T11:31:04.834Z,9.00
2017-12-17T11:33:32.598Z,9.03
2017-12-17T11:36:00.465Z,9.93
2017-12-17T11:38:28.234Z,7.87
2017-12-17T11:40:56.032Z,11.33
2017-12-17T11:43:23.951Z,7.73
2017-12-17T11:45:52.326Z,5.17
2017-12-17T11:48:20.803Z,5.90
2017-12-17T11:50:48.591Z,3.90
2017-12-17T11:53:16.525Z,4.77
2017-12-17T11:55:44.428Z,7.03
2017-12-17T11:58:12.971Z,2.03
2017-12-17T12:00:40.762Z,3.60
2017-12-17T12:03:08.531Z,1.67
2017-12-17T12:05:36.371Z,4.43
2017-12-17T12:08:04.191Z,2.07
2017-12-17T12:10:31.978Z,1.80
2017-12-17T12:12:59.793Z,3.23
2017-12-17T12:15:27.784Z,2.23
2017-12-17T12:17:55.603Z,3.47
2017-12-17T12:20:23.419Z,2.30
2017-12-17T12:22:51.231Z,3.50
2017-12-17T12:25:19.069Z,5.33
2017-12-17T12:27:46.882Z,2.23
2017-12-17T12:30:14.692Z,5.20
2017-12-17T12:32:42.460Z,2.50
2017-12-17T12:35:10.348Z,20.87
2017-12-17T12:37:38.477Z,6.03
2017-12-17T12:40:06.330Z,13.27
2017-12-17T12:42:34.135Z,8.33
2017-12-17T12:45:01.938Z,15.80
2017-12-17T12:47:29.718Z,13.23
2017-12-17T12:49:57.819Z,5.10
2017-12-17T12:52:25.613Z,4.27
2017-12-17T12:54:53.413Z,3.57
2017-12-17T12:57:21.248Z,2.10
2017-12-17T12:59:49.009Z,2.37
2017-12-17T13:02:16.840Z,6.50
2017-12-17T13:04:44.752Z,2.80
2017-12-17T13:07:12.844Z,7.93
2017-12-17T13:09:40.600Z,1.13
2017-12-17T13:12:08.432Z,6.10
2017-12-17T13:14:36.343Z,1.73
2017-12-17T13:17:04.225Z,1.43
2017-12-17T13:19:32.019Z,2.33
2017-12-17T13:22:00.513Z,1.67
2017-12-17T13:24:28.331Z,1.73
2017-12-17T13:26:56.192Z,1.90
2017-12-17T13:29:24.049Z,4.03
2017-12-17T13:31:51.808Z,3.43
2017-12-17T13:34:19.608Z,3.20
2017-12-17T13:36:47.426Z,2.27
2017-12-17T13:39:15.213Z,2.10
2017-12-17T13:41:43.019Z,2.83
2017-12-17T13:44:10.881Z,1.07
2017-12-17T13:46:38.656Z,1.53
2017-12-17T13:49:06.408Z,1.60
2017-12-17T13:51:34.189Z,1.83
2017-12-17T13:54:02.025Z,1.10
2017-12-17T13:56:29.808Z,0.97
2017-12-17T13:58:57.681Z,1.90
2017-12-17T14:01:25.510Z,1.27
2017-12-17T14:03:53.343Z,1.23
2017-12-17T14:06:21.236Z,0.60
2017-12-17T14:08:49.686Z,0.67
2017-12-17T14:11:17.681Z,2.03
2017-12-17T14:13:45.495Z,0.70
2017-12-17T14:16:13.295Z,1.80
2017-12-17T14:18:41.110Z,0.90
2017-12-17T14:21:09.779Z,1.90
2017-12-17T14:23:37.532Z,3.60
2017-12-17T14:26:05.369Z,0.90
2017-12-17T14:28:34.074Z,1.23
2017-12-17T14:31:02.282Z,0.90
2017-12-17T14:33:30.087Z,0.90
2017-12-17T14:35:58.098Z,1.40
2017-12-17T14:38:27.644Z,5.23
2017-12-17T14:40:55.541Z,1.63
2017-12-17T14:43:23.350Z,0.97
2017-12-17T14:45:51.137Z,0.83
2017-12-17T14:48:18.982Z,1.33
2017-12-17T14:50:46.857Z,1.57
2017-12-17T14:53:14.678Z,0.80
2017-12-17T14:55:42.660Z,1.60
2017-12-17T14:58:10.522Z,1.33
2017-12-17T15:00:38.686Z,1.63
2017-12-17T15:03:06.577Z,2.10
2017-12-17T15:05:34.564Z,1.70
2017-12-17T15:08:02.384Z,3.20
2017-12-17T15:10:31.434Z,5.10
2017-12-17T15:13:00.006Z,5.90
2017-12-17T15:15:27.787Z,7.90
2017-12-17T15:17:55.669Z,4.20
2017-12-17T15:20:23.571Z,10.00
2017-12-17T15:22:51.441Z,10.13
2017-12-17T15:25:19.330Z,4.37
2017-12-17T15:27:47.191Z,1.20
2017-12-17T15:30:15.056Z,1.43
2017-12-17T15:32:42.958Z,1.97
2017-12-17T15:35:10.848Z,3.77
2017-12-17T15:37:39.439Z,2.00
2017-12-17T15:40:07.238Z,1.57
2017-12-17T15:42:35.026Z,2.20
2017-12-17T15:45:02.802Z,2.53
2017-12-17T15:47:30.710Z,2.80
2017-12-17T15:49:58.600Z,1.73
2017-12-17T15:52:27.299Z,37.00
2017-12-17T15:54:55.173Z,8.10
2017-12-17T15:57:23.114Z,2.63
2017-12-17T15:59:50.892Z,1.40
2017-12-17T16:02:19.793Z,2.77
2017-12-17T16:04:47.608Z,1.20
2017-12-17T16:07:15.445Z,4.43
2017-12-17T16:09:44.391Z,3.73
2017-12-17T16:12:12.208Z,6.03
2017-12-17T16:14:41.507Z,5.27
2017-12-17T16:17:10.233Z,4.90
2017-12-17T16:19:38.209Z,4.30
2017-12-17T16:22:08.103Z,3.37
2017-12-17T16:24:35.895Z,5.43
2017-12-17T16:27:04.199Z,5.97
2017-12-17T16:29:32.878Z,12.90
2017-12-17T16:32:00.862Z,4.97
2017-12-17T16:34:30.071Z,4.37
2017-12-17T16:37:02.376Z,3.83
2017-12-17T16:39:30.261Z,2.10
2017-12-17T16:41:58.335Z,0.97
2017-12-17T16:44:26.150Z,1.73
2017-12-17T16:46:53.934Z,1.30
2017-12-17T16:49:22.003Z,2.40
2017-12-17T16:51:49.825Z,4.70
2017-12-17T16:54:17.535Z,12.47
2017-12-17T16:56:45.564Z,7.70
2017-12-17T16:59:13.309Z,2.97
2017-12-17T17:01:41.091Z,3.40
2017-12-17T17:04:09.192Z,5.30
2017-12-17T17:06:36.989Z,2.93
2017-12-17T17:09:04.816Z,11.60
2017-12-17T17:11:32.627Z,5.80
2017-12-17T17:14:00.554Z,5.83
2017-12-17T17:16:28.258Z,5.07
2017-12-17T17:18:56.031Z,8.87
2017-12-17T17:21:23.842Z,8.33
2017-12-17T17:23:51.593Z,2.50
2017-12-17T17:26:19.457Z,9.53
2017-12-17T17:28:47.242Z,5.00
2017-12-17T17:31:15.021Z,7.60
2017-12-17T17:33:42.809Z,10.40
2017-12-17T17:36:10.592Z,10.67
2017-12-17T17:38:38.422Z,10.37
2017-12-17T17:41:06.227Z,5.77
2017-12-17T17:43:35.033Z,2.43
2017-12-17T17:46:02.913Z,2.10
2017-12-17T17:48:30.712Z,5.23
2017-12-17T17:50:58.646Z,4.53
2017-12-17T17:53:26.507Z,5.17
2017-12-17T17:55:54.254Z,3.83
2017-12-17T17:58:22.079Z,5.67
2017-12-17T18:00:49.896Z,6.17
2017-12-17T18:03:17.646Z,2.70
2017-12-17T18:05:45.446Z,5.00
2017-12-17T18:08:13.243Z,3.23
2017-12-17T18:10:41.836Z,5.20
2017-12-17T18:13:09.569Z,2.63
2017-12-17T18:15:37.309Z,5.93
2017-12-17T18:18:05.047Z,3.37
2017-12-17T18:20:33.191Z,2.73
2017-12-17T18:23:01.077Z,3.67
2017-12-17T18:25:28.861Z,4.33
2017-12-17T18:27:56.686Z,5.43
2017-12-17T18:30:24.550Z,5.23
2017-12-17T18:32:52.227Z,4.20
2017-12-17T18:35:19.927Z,2.77
2017-12-17T18:37:48.859Z,1.07
2017-12-17T18:40:16.630Z,3.87
2017-12-17T18:42:44.345Z,1.77
2017-12-17T18:45:12.107Z,2.37
2017-12-17T18:47:39.899Z,4.63
2017-12-17T18:50:07.638Z,7.07
2017-12-17T18:52:35.380Z,2.53
2017-12-17T18:55:03.519Z,4.93
2017-12-17T18:57:31.338Z,2.20
2017-12-17T18:59:59.217Z,9.30
2017-12-17T19:02:27.356Z,5.67
2017-12-17T19:04:56.478Z,7.93
2017-12-17T19:07:25.394Z,16.80
2017-12-17T19:09:54.098Z,11.90
2017-12-17T19:12:22.867Z,6.90
2017-12-17T19:14:51.155Z,18.30
2017-12-17T19:17:19.018Z,4.30
2017-12-17T19:19:46.788Z,1.10
2017-12-17T19:22:15.668Z,1.37
2017-12-17T19:24:43.682Z,2.07
2017-12-17T19:27:11.604Z,1.20
2017-12-17T19:29:41.264Z,1.80
2017-12-17T19:32:10.353Z,2.47
2017-12-17T19:34:40.460Z,1.17
2017-12-17T19:37:08.738Z,2.03
2017-12-17T19:39:37.087Z,1.70
2017-12-17T19:42:04.857Z,0.50
2017-12-17T19:44:32.792Z,0.73
2017-12-17T19:47:00.655Z,0.77
2017-12-17T19:49:28.516Z,2.50
2017-12-17T19:51:57.390Z,1.50
2017-12-17T19:54:25.455Z,3.50
2017-12-17T19:56:53.295Z,1.17
2017-12-17T19:59:21.170Z,1.13
2017-12-17T20:01:48.964Z,7.20
2017-12-17T20:04:16.882Z,10.80
2017-12-17T20:06:45.276Z,7.03
2017-12-17T20:09:13.158Z,6.10
2017-12-17T20:11:41.107Z,3.63
2017-12-17T20:14:08.833Z,1.00
2017-12-17T20:16:36.628Z,4.37
2017-12-17T20:19:04.596Z,1.10
2017-12-17T20:21:33.670Z,2.07
2017-12-17T20:24:01.537Z,1.17
2017-12-17T20:26:29.434Z,1.50
2017-12-17T20:28:57.348Z,1.13
2017-12-17T20:31:25.291Z,0.87
2017-12-17T20:33:53.131Z,2.80
2017-12-17T20:36:22.671Z,7.10
2017-12-17T20:38:51.904Z,4.60
2017-12-17T20:41:19.912Z,1.60
2017-12-17T20:43:48.602Z,0.90
2017-12-17T20:46:16.680Z,1.07
2017-12-17T20:48:44.380Z,2.23
2017-12-17T20:51:12.173Z,0.80
2017-12-17T20:53:40.712Z,5.70
2017-12-17T20:56:08.461Z,1.60
2017-12-17T20:58:36.446Z,2.13
2017-12-17T21:01:04.147Z,8.00
2017-12-17T21:03:32.029Z,0.90
2017-12-17T21:05:59.910Z,0.63
2017-12-17T21:08:27.785Z,2.77
2017-12-17T21:10:55.480Z,2.60
2017-12-17T21:13:23.312Z,0.87
2017-12-17T21:15:51.150Z,1.60
2017-12-17T21:18:18.871Z,1.67
2017-12-17T21:20:46.550Z,2.10
2017-12-17T21:23:14.431Z,1.47
2017-12-17T21:25:42.249Z,0.87
2017-12-17T21:28:10.016Z,1.00
2017-12-17T21:30:37.902Z,1.17
2017-12-17T21:33:05.843Z,1.50
2017-12-17T21:35:33.732Z,1.17
2017-12-17T21:38:01.618Z,2.07
2017-12-17T21:40:29.369Z,1.00
2017-12-17T21:42:57.150Z,0.77
2017-12-17T21:45:24.832Z,1.53
2017-12-17T21:47:52.584Z,0.80
2017-12-17T21:50:20.266Z,2.73
2017-12-17T21:52:48.014Z,1.23
2017-12-17T21:55:15.892Z,1.13
2017-12-17T21:57:43.621Z,7.27
2017-12-17T22:00:11.342Z,1.83
2017-12-17T22:02:39.428Z,2.47
2017-12-17T22:05:07.171Z,1.30
2017-12-17T22:07:34.937Z,7.50
2017-12-17T22:10:02.640Z,1.77
2017-12-17T22:12:30.457Z,2.00
2017-12-17T22:14:58.175Z,2.13
2017-12-17T22:17:26.003Z,4.13
2017-12-17T22:19:53.713Z,8.90
2017-12-17T22:22:21.441Z,3.73
2017-12-17T22:24:49.262Z,1.53
2017-12-17T22:27:16.966Z,2.37
2017-12-17T22:29:44.672Z,3.00
2017-12-17T22:32:12.447Z,2.20
2017-12-17T22:34:40.151Z,6.97
2017-12-17T22:37:08.127Z,5.37
2017-12-17T22:39:35.921Z,3.83
2017-12-17T22:42:03.737Z,3.17
2017-12-17T22:44:32.018Z,2.80
2017-12-17T22:46:59.806Z,2.03
2017-12-17T22:49:27.567Z,4.77
2017-12-17T22:51:55.361Z,2.30
2017-12-17T22:54:23.099Z,3.27
2017-12-17T22:56:50.816Z,3.27
2017-12-17T22:59:18.609Z,3.73
2017-12-17T23:01:46.282Z,3.83
2017-12-17T23:04:14.062Z,4.77
2017-12-17T23:06:41.796Z,3.13
2017-12-17T23:09:09.478Z,3.30
2017-12-17T23:11:37.327Z,2.40
2017-12-17T23:14:05.025Z,2.53
2017-12-17T23:16:33.092Z,2.27
2017-12-17T23:19:00.780Z,2.23
2017-12-17T23:21:28.618Z,2.17
2017-12-17T23:23:56.325Z,4.90
2017-12-17T23:26:24.087Z,2.23
2017-12-17T23:28:51.937Z,3.80
2017-12-17T23:31:19.698Z,3.03
2017-12-17T23:33:47.464Z,2.93
2017-12-17T23:36:15.259Z,4.10
2017-12-17T23:38:42.982Z,2.53
2017-12-17T23:41:10.675Z,2.67
2017-12-17T23:43:38.440Z,2.17
2017-12-17T23:46:06.148Z,2.33
2017-12-17T23:48:33.913Z,2.50
2017-12-17T23:51:01.686Z,1.60
2017-12-17T23:53:29.459Z,1.73
2017-12-17T23:55:57.161Z,1.40
2017-12-17T23:58:24.918Z,1.37
